Terminal Aerodrome Forecast
Issued by NWS Blacksburg, VA

Current Version | Previous Version | Text Only | Print | Product List | Glossary Off
Versions: 1 2 3 4 5 6 7 8 9 10 11 12 13 14 15 16 17 18 19 20 21 22 23 24 25

000
FTUS41 KRNK 301731
TAFBLF
TAF
KBLF 301731Z 3018/3118 VRB03KT P6SM VCSH SCT045 OVC120
     FM310200 VRB03KT P6SM OVC070
     FM311000 VRB03KT P6SM BKN035 OVC060=

USA.gov is the U.S. government's official web portal to all federal, state and local government web resources and services.